Sol Duc Hot Springs, Washington
Current Conditions -  °F | °C
As of 5:53 AM on Saturday 20 Dec 2014 (Local Time) from KCLM Reporting Station
Overcast Overcast  
Wind Chill: 38°   Ceiling: 8000
Heat Index: 42°   Visibility: 10mi
Dew Point: 40°   Wind: 7mph
Humidity: 92%   Direction: 130°SE
Pressure: 29.55"   Gusts: NA
Location:  48.0203°N, 123.478°W
Report Text: KCLM 201353Z AUTO 13006KT 10SM FEW055 OVC080 06/04 A2955 RMK AO2 RAB08E38 SLP006 P0002 T00560044 TSNO $
Loading
Personal Weather Stations






























Interactive Weather Map New forecast layout! Learn more

10-Day Weather Forecast

Advertisements
Track Severe Weather on mobile